Time,TemperatureF,DewpointF,PressureIn,WindDirection,WindDirectionDegrees,WindSpeedMPH,WindSpeedGustMPH,Humidity,HourlyPrecipIn,Conditions,Clouds,dailyrainin,SolarRadiationWatts/m^2,SoftwareType,DateUTC
2013-08-03 00:01:00,59.0,57.9,29.35,NW,323,0.0,0.0,96,0.00,,,0.00,0,WeatherCatV1.20B785,2013-08-03 04:01:00,
2013-08-03 00:06:00,58.9,57.8,29.35,NW,323,0.0,0.0,96,0.00,,,0.00,0,WeatherCatV1.20B785,2013-08-03 04:06:00,
2013-08-03 00:11:00,58.9,58.0,29.35,NW,323,0.0,0.0,97,0.00,,,0.00,0,WeatherCatV1.20B785,2013-08-03 04:11:00,
2013-08-03 00:16:00,58.8,58.0,29.35,NW,323,0.0,1.0,97,0.00,,,0.00,0,WeatherCatV1.20B785,2013-08-03 04:16:00,
2013-08-03 00:21:00,58.6,57.5,29.35,NW,323,0.0,1.0,96,0.00,,,0.00,0,WeatherCatV1.20B785,2013-08-03 04:21:00,
2013-08-03 00:26:00,58.5,57.4,29.35,NW,323,0.0,0.0,96,0.00,,,0.00,0,WeatherCatV1.20B785,2013-08-03 04:26:00,
2013-08-03 00:31:00,58.4,57.3,29.35,NW,323,0.0,0.0,96,0.00,,,0.00,0,WeatherCatV1.20B785,2013-08-03 04:31:00,
2013-08-03 00:36:00,58.3,57.2,29.35,NW,323,0.0,0.0,96,0.00,,,0.00,0,WeatherCatV1.20B785,2013-08-03 04:36:00,
2013-08-03 00:41:00,58.3,57.2,29.34,NW,323,0.0,0.0,96,0.00,,,0.00,0,WeatherCatV1.20B785,2013-08-03 04:41:00,
2013-08-03 00:46:00,58.2,57.1,29.34,NW,323,0.0,0.0,96,0.00,,,0.00,0,WeatherCatV1.20B785,2013-08-03 04:46:00,
2013-08-03 00:51:00,58.1,57.0,29.34,NW,323,0.0,0.0,96,0.00,,,0.00,0,WeatherCatV1.20B785,2013-08-03 04:51:00,
2013-08-03 00:56:00,58.1,57.0,29.33,NW,323,0.0,0.0,96,0.00,,,0.00,0,WeatherCatV1.20B785,2013-08-03 04:56:00,
2013-08-03 01:01:00,58.0,57.2,29.34,NW,323,0.0,0.0,97,0.00,,,0.00,0,WeatherCatV1.20B785,2013-08-03 05:01:00,
2013-08-03 01:06:00,57.9,56.8,29.34,NW,323,0.0,0.0,96,0.00,,,0.00,0,WeatherCatV1.20B785,2013-08-03 05:06:00,
2013-08-03 01:11:00,57.8,56.7,29.35,NW,323,0.0,0.0,96,0.00,,,0.00,0,WeatherCatV1.20B785,2013-08-03 05:11:00,
2013-08-03 01:16:00,57.7,56.6,29.34,NW,323,0.0,0.0,96,0.00,,,0.00,0,WeatherCatV1.20B785,2013-08-03 05:16:00,
2013-08-03 01:21:00,57.7,56.6,29.35,NW,323,0.0,0.0,96,0.00,,,0.00,0,WeatherCatV1.20B785,2013-08-03 05:21:00,
2013-08-03 01:26:00,57.6,56.5,29.35,NW,323,0.0,0.0,96,0.00,,,0.00,0,WeatherCatV1.20B785,2013-08-03 05:26:00,
2013-08-03 01:31:00,57.5,56.4,29.34,NW,323,0.0,0.0,96,0.00,,,0.00,0,WeatherCatV1.20B785,2013-08-03 05:31:00,
2013-08-03 01:36:00,57.4,56.3,29.34,NW,323,0.0,0.0,96,0.00,,,0.00,0,WeatherCatV1.20B785,2013-08-03 05:36:00,
2013-08-03 01:41:00,57.4,56.3,29.34,NW,323,0.0,0.0,96,0.00,,,0.00,0,WeatherCatV1.20B785,2013-08-03 05:41:00,
2013-08-03 01:46:00,57.3,56.2,29.34,NW,323,0.0,0.0,96,0.00,,,0.00,0,WeatherCatV1.20B785,2013-08-03 05:46:00,
2013-08-03 01:51:00,57.2,56.3,29.33,NW,323,0.0,0.0,97,0.00,,,0.00,0,WeatherCatV1.20B785,2013-08-03 05:51:00,
2013-08-03 01:56:00,57.2,56.3,29.33,NW,323,0.0,0.0,97,0.00,,,0.00,0,WeatherCatV1.20B785,2013-08-03 05:56:00,
2013-08-03 02:01:00,57.1,56.2,29.33,NW,323,0.0,0.0,97,0.00,,,0.00,0,WeatherCatV1.20B785,2013-08-03 06:01:00,
2013-08-03 02:06:00,57.1,56.2,29.33,NW,323,0.0,0.0,97,0.00,,,0.00,0,WeatherCatV1.20B785,2013-08-03 06:06:00,
2013-08-03 02:11:00,57.1,56.2,29.33,NW,323,0.0,0.0,97,0.00,,,0.00,0,WeatherCatV1.20B785,2013-08-03 06:11:00,
2013-08-03 02:16:00,57.1,56.2,29.33,NW,323,0.0,0.0,97,0.00,,,0.00,0,WeatherCatV1.20B785,2013-08-03 06:16:00,
2013-08-03 02:21:00,57.1,56.5,29.33,NW,323,0.0,0.0,98,0.00,,,0.00,0,WeatherCatV1.20B785,2013-08-03 06:21:00,
2013-08-03 02:26:00,57.2,56.6,29.33,NW,323,0.0,0.0,98,0.00,,,0.00,0,WeatherCatV1.20B785,2013-08-03 06:26:00,
2013-08-03 02:31:00,57.2,56.6,29.32,NW,323,0.0,0.0,98,0.00,,,0.00,0,WeatherCatV1.20B785,2013-08-03 06:31:00,
2013-08-03 02:36:00,57.3,56.7,29.32,NW,323,0.0,0.0,98,0.00,,,0.00,0,WeatherCatV1.20B785,2013-08-03 06:36:00,
2013-08-03 02:41:00,57.3,56.7,29.32,NW,323,0.0,0.0,98,0.00,,,0.00,0,WeatherCatV1.20B785,2013-08-03 06:41:00,
2013-08-03 02:46:00,57.3,56.7,29.32,NW,323,0.0,0.0,98,0.00,,,0.00,0,WeatherCatV1.20B785,2013-08-03 06:46:00,
2013-08-03 02:51:00,57.3,56.7,29.31,NW,323,0.0,0.0,98,0.00,,,0.00,0,WeatherCatV1.20B785,2013-08-03 06:51:00,
2013-08-03 02:56:00,57.3,56.7,29.31,NW,323,0.0,0.0,98,0.00,,,0.00,0,WeatherCatV1.20B785,2013-08-03 06:56:00,
2013-08-03 03:01:00,57.3,56.7,29.31,NW,323,0.0,0.0,98,0.00,,,0.00,0,WeatherCatV1.20B785,2013-08-03 07:01:00,
2013-08-03 03:06:00,57.4,56.8,29.31,NW,323,0.0,0.0,98,0.00,,,0.00,0,WeatherCatV1.20B785,2013-08-03 07:06:00,
2013-08-03 03:11:00,57.4,56.8,29.31,NW,323,0.0,0.0,98,0.00,,,0.00,0,WeatherCatV1.20B785,2013-08-03 07:11:00,
2013-08-03 03:22:00,57.4,56.8,29.31,NW,323,0.0,0.0,98,0.00,,,0.00,0,WeatherCatV1.20B785,2013-08-03 07:22:00,
2013-08-03 03:26:00,57.4,56.8,29.31,NW,323,0.0,0.0,98,0.00,,,0.00,0,WeatherCatV1.20B785,2013-08-03 07:26:00,
2013-08-03 03:31:00,57.4,56.8,29.31,NW,323,0.0,0.0,98,0.00,,,0.00,0,WeatherCatV1.20B785,2013-08-03 07:31:00,
2013-08-03 03:36:00,57.4,56.8,29.31,NW,323,0.0,0.0,98,0.00,,,0.00,0,WeatherCatV1.20B785,2013-08-03 07:36:00,
2013-08-03 03:41:00,57.4,56.8,29.31,NW,323,0.0,0.0,98,0.00,,,0.00,0,WeatherCatV1.20B785,2013-08-03 07:41:00,
2013-08-03 03:46:00,57.3,56.7,29.31,NW,323,0.0,0.0,98,0.00,,,0.00,0,WeatherCatV1.20B785,2013-08-03 07:46:00,
2013-08-03 03:51:00,57.2,56.6,29.30,NW,323,0.0,0.0,98,0.00,,,0.00,0,WeatherCatV1.20B785,2013-08-03 07:51:00,
2013-08-03 03:56:00,57.2,56.6,29.30,NW,323,0.0,0.0,98,0.00,,,0.00,0,WeatherCatV1.20B785,2013-08-03 07:56:00,
2013-08-03 04:01:00,57.1,56.5,29.31,NW,323,0.0,0.0,98,0.00,,,0.00,0,WeatherCatV1.20B785,2013-08-03 08:01:00,
2013-08-03 04:06:00,57.1,56.5,29.30,NW,323,0.0,0.0,98,0.00,,,0.00,0,WeatherCatV1.20B785,2013-08-03 08:06:00,
2013-08-03 04:11:00,57.1,56.5,29.30,NW,323,0.0,0.0,98,0.00,,,0.00,0,WeatherCatV1.20B785,2013-08-03 08:11:00,
2013-08-03 04:16:00,57.0,56.4,29.30,NW,323,0.0,0.0,98,0.00,,,0.00,0,WeatherCatV1.20B785,2013-08-03 08:16:00,
2013-08-03 04:21:00,57.0,56.4,29.29,NW,323,0.0,0.0,98,0.00,,,0.00,0,WeatherCatV1.20B785,2013-08-03 08:21:00,
2013-08-03 04:26:00,56.9,56.3,29.29,NW,323,0.0,0.0,98,0.00,,,0.00,0,WeatherCatV1.20B785,2013-08-03 08:26:00,
2013-08-03 04:31:00,56.9,56.3,29.29,NW,323,0.0,0.0,98,0.00,,,0.00,0,WeatherCatV1.20B785,2013-08-03 08:31:00,
2013-08-03 04:36:00,56.8,56.2,29.29,NW,323,0.0,0.0,98,0.00,,,0.00,0,WeatherCatV1.20B785,2013-08-03 08:36:00,
2013-08-03 04:41:00,56.8,56.2,29.29,NW,323,0.0,1.0,98,0.00,,,0.00,0,WeatherCatV1.20B785,2013-08-03 08:41:00,
2013-08-03 04:46:00,56.8,56.2,29.29,NW,323,0.0,0.0,98,0.00,,,0.00,0,WeatherCatV1.20B785,2013-08-03 08:46:00,
2013-08-03 04:51:00,56.7,56.1,29.30,NW,323,0.0,0.0,98,0.00,,,0.00,0,WeatherCatV1.20B785,2013-08-03 08:51:00,
2013-08-03 04:56:00,56.7,56.1,29.30,NW,323,0.0,0.0,98,0.00,,,0.00,0,WeatherCatV1.20B785,2013-08-03 08:56:00,
2013-08-03 05:01:00,56.7,56.1,29.29,NW,323,0.0,0.0,98,0.00,,,0.00,0,WeatherCatV1.20B785,2013-08-03 09:01:00,
2013-08-03 05:06:00,56.7,56.1,29.29,NW,323,0.0,0.0,98,0.00,,,0.00,0,WeatherCatV1.20B785,2013-08-03 09:06:00,
2013-08-03 05:11:00,56.7,56.1,29.29,NW,323,0.0,0.0,98,0.00,,,0.00,0,WeatherCatV1.20B785,2013-08-03 09:11:00,
2013-08-03 05:16:00,56.7,56.1,29.30,NW,323,0.0,0.0,98,0.00,,,0.00,0,WeatherCatV1.20B785,2013-08-03 09:16:00,
2013-08-03 05:21:00,56.7,56.4,29.30,NW,323,0.0,0.0,99,0.00,,,0.00,0,WeatherCatV1.20B785,2013-08-03 09:21:00,
2013-08-03 05:26:00,56.7,56.4,29.30,NW,323,0.0,0.0,99,0.00,,,0.00,0,WeatherCatV1.20B785,2013-08-03 09:26:00,
2013-08-03 05:31:00,56.8,56.5,29.30,NW,323,0.0,0.0,99,0.00,,,0.00,0,WeatherCatV1.20B785,2013-08-03 09:31:00,
2013-08-03 05:36:00,56.8,56.5,29.30,NW,323,0.0,0.0,99,0.00,,,0.00,0,WeatherCatV1.20B785,2013-08-03 09:36:00,
2013-08-03 05:41:00,56.9,56.6,29.29,NW,323,0.0,0.0,99,0.00,,,0.00,0,WeatherCatV1.20B785,2013-08-03 09:41:00,
2013-08-03 05:46:00,56.9,56.6,29.29,NW,323,0.0,0.0,99,0.00,,,0.00,0,WeatherCatV1.20B785,2013-08-03 09:46:00,
2013-08-03 05:51:00,56.9,56.6,29.30,NW,323,0.0,0.0,99,0.00,,,0.00,0,WeatherCatV1.20B785,2013-08-03 09:51:00,
2013-08-03 05:56:00,56.9,56.6,29.30,NW,323,0.0,0.0,99,0.00,,,0.00,5,WeatherCatV1.20B785,2013-08-03 09:56:00,
2013-08-03 06:01:00,57.0,56.7,29.30,NW,323,0.0,0.0,99,0.00,,,0.00,0,WeatherCatV1.20B785,2013-08-03 10:01:00,
2013-08-03 06:06:00,57.0,56.7,29.29,NW,323,0.0,0.0,99,0.00,,,0.00,0,WeatherCatV1.20B785,2013-08-03 10:06:00,
2013-08-03 06:11:00,57.0,56.7,29.30,NW,323,0.0,0.0,99,0.00,,,0.00,5,WeatherCatV1.20B785,2013-08-03 10:11:00,
2013-08-03 06:16:00,57.0,56.7,29.30,NW,323,0.0,0.0,99,0.00,,,0.00,5,WeatherCatV1.20B785,2013-08-03 10:16:00,
2013-08-03 06:21:00,57.0,56.7,29.30,NW,323,0.0,0.0,99,0.00,,,0.00,5,WeatherCatV1.20B785,2013-08-03 10:21:00,
2013-08-03 06:26:00,56.9,56.6,29.30,NW,323,0.0,0.0,99,0.00,,,0.00,5,WeatherCatV1.20B785,2013-08-03 10:26:00,
2013-08-03 06:31:00,56.9,56.6,29.31,NW,323,0.0,0.0,99,0.00,,,0.00,5,WeatherCatV1.20B785,2013-08-03 10:31:00,
2013-08-03 06:36:00,56.9,56.6,29.31,NW,323,0.0,0.0,99,0.00,,,0.00,0,WeatherCatV1.20B785,2013-08-03 10:36:00,
2013-08-03 06:41:00,56.8,56.5,29.31,NW,323,0.0,0.0,99,0.00,,,0.00,0,WeatherCatV1.20B785,2013-08-03 10:41:00,
2013-08-03 06:46:00,56.7,56.4,29.31,NW,323,0.0,0.0,99,0.00,,,0.00,0,WeatherCatV1.20B785,2013-08-03 10:46:00,
2013-08-03 06:51:00,56.6,56.0,29.31,NW,323,0.0,0.0,98,0.00,,,0.00,7,WeatherCatV1.20B785,2013-08-03 10:51:00,
2013-08-03 06:56:00,56.4,55.8,29.31,NW,323,0.0,0.0,98,0.00,,,0.00,5,WeatherCatV1.20B785,2013-08-03 10:56:00,
2013-08-03 07:01:00,56.4,55.8,29.31,NW,323,0.0,1.0,98,0.00,,,0.00,0,WeatherCatV1.20B785,2013-08-03 11:01:00,
2013-08-03 07:06:00,56.4,55.8,29.31,NW,323,0.0,0.0,98,0.00,,,0.00,0,WeatherCatV1.20B785,2013-08-03 11:06:00,
2013-08-03 07:11:00,56.4,55.8,29.31,NW,323,0.0,0.0,98,0.00,,,0.00,5,WeatherCatV1.20B785,2013-08-03 11:11:00,
2013-08-03 07:16:00,56.4,55.8,29.31,NW,323,0.0,0.0,98,0.00,,,0.00,5,WeatherCatV1.20B785,2013-08-03 11:16:00,
2013-08-03 07:21:00,56.4,56.1,29.31,NW,323,0.0,0.0,99,0.00,,,0.00,5,WeatherCatV1.20B785,2013-08-03 11:21:00,
2013-08-03 07:26:00,56.4,55.8,29.31,NW,323,0.0,1.0,98,0.00,,,0.00,5,WeatherCatV1.20B785,2013-08-03 11:26:00,
2013-08-03 07:31:00,56.4,56.1,29.32,NW,323,0.0,0.0,99,0.00,,,0.00,5,WeatherCatV1.20B785,2013-08-03 11:31:00,
2013-08-03 07:36:00,56.4,56.1,29.32,NW,323,0.0,0.0,99,0.00,,,0.00,5,WeatherCatV1.20B785,2013-08-03 11:36:00,
2013-08-03 07:41:00,56.4,56.1,29.32,NW,323,0.0,0.0,99,0.00,,,0.00,5,WeatherCatV1.20B785,2013-08-03 11:41:00,
2013-08-03 07:46:00,56.4,56.1,29.32,NW,323,0.0,0.0,99,0.00,,,0.00,7,WeatherCatV1.20B785,2013-08-03 11:46:00,
2013-08-03 07:51:00,56.4,56.1,29.32,NW,323,0.0,0.0,99,0.00,,,0.00,5,WeatherCatV1.20B785,2013-08-03 11:51:00,
2013-08-03 07:56:00,56.4,56.1,29.32,NW,323,0.0,0.0,99,0.00,,,0.00,5,WeatherCatV1.20B785,2013-08-03 11:56:00,
2013-08-03 08:01:00,56.4,56.1,29.32,NW,323,0.0,0.0,99,0.00,,,0.00,9,WeatherCatV1.20B785,2013-08-03 12:01:00,
2013-08-03 08:06:00,56.4,56.1,29.33,WNW,292,0.0,1.0,99,0.00,,,0.00,11,WeatherCatV1.20B785,2013-08-03 12:06:00,
2013-08-03 08:11:00,56.4,56.1,29.33,WNW,292,0.0,0.0,99,0.00,,,0.00,9,WeatherCatV1.20B785,2013-08-03 12:11:00,
2013-08-03 08:16:00,56.4,56.1,29.33,WNW,292,0.0,0.0,99,0.00,,,0.00,7,WeatherCatV1.20B785,2013-08-03 12:16:00,
2013-08-03 08:21:00,56.4,56.1,29.32,WNW,292,0.0,0.0,99,0.00,,,0.00,9,WeatherCatV1.20B785,2013-08-03 12:21:00,
2013-08-03 08:26:00,56.4,56.1,29.31,WNW,292,0.0,0.0,99,0.00,,,0.00,12,WeatherCatV1.20B785,2013-08-03 12:26:00,
2013-08-03 08:31:00,56.4,56.1,29.30,WNW,292,0.0,0.0,99,0.00,,,0.00,18,WeatherCatV1.20B785,2013-08-03 12:31:00,
2013-08-03 08:36:00,56.5,56.2,29.29,WNW,292,0.0,0.0,99,0.00,,,0.00,26,WeatherCatV1.20B785,2013-08-03 12:36:00,
2013-08-03 08:41:00,56.6,56.3,29.29,WNW,292,1.0,1.0,99,0.00,,,0.00,25,WeatherCatV1.20B785,2013-08-03 12:41:00,
2013-08-03 08:46:00,56.7,56.4,29.29,WNW,292,0.0,0.0,99,0.00,,,0.00,28,WeatherCatV1.20B785,2013-08-03 12:46:00,
2013-08-03 08:51:00,56.8,56.5,29.29,WNW,292,0.0,0.0,99,0.00,,,0.00,35,WeatherCatV1.20B785,2013-08-03 12:51:00,
2013-08-03 08:56:00,56.9,56.6,29.30,WNW,292,0.0,0.0,99,0.00,,,0.00,53,WeatherCatV1.20B785,2013-08-03 12:56:00,
2013-08-03 09:01:00,57.2,56.9,29.31,WNW,292,0.0,1.0,99,0.00,,,0.00,42,WeatherCatV1.20B785,2013-08-03 13:01:00,
2013-08-03 09:06:00,57.4,57.1,29.30,WNW,292,0.0,0.0,99,0.00,,,0.00,46,WeatherCatV1.20B785,2013-08-03 13:06:00,
2013-08-03 09:11:00,57.5,57.2,29.30,WNW,292,0.0,0.0,99,0.00,,,0.00,47,WeatherCatV1.20B785,2013-08-03 13:11:00,
2013-08-03 09:16:00,57.8,57.5,29.30,WNW,292,0.0,1.0,99,0.00,,,0.00,54,WeatherCatV1.20B785,2013-08-03 13:16:00,
2013-08-03 09:21:00,58.0,57.7,29.30,WNW,292,0.0,0.0,99,0.00,,,0.00,42,WeatherCatV1.20B785,2013-08-03 13:21:00,
2013-08-03 09:26:00,58.2,57.9,29.30,WNW,292,0.0,0.0,99,0.00,,,0.00,46,WeatherCatV1.20B785,2013-08-03 13:26:00,
2013-08-03 09:32:00,58.3,58.0,29.30,WNW,292,0.0,0.0,99,0.00,,,0.00,46,WeatherCatV1.20B785,2013-08-03 13:32:00,
2013-08-03 09:37:00,58.5,58.2,29.30,WNW,292,0.0,0.0,99,0.00,,,0.00,53,WeatherCatV1.20B785,2013-08-03 13:37:00,
2013-08-03 09:42:00,58.7,58.4,29.30,WNW,292,0.0,0.0,99,0.00,,,0.00,49,WeatherCatV1.20B785,2013-08-03 13:42:00,
2013-08-03 09:47:00,59.0,59.0,29.30,WNW,292,0.0,0.0,100,0.00,,,0.00,28,WeatherCatV1.20B785,2013-08-03 13:47:00,
2013-08-03 09:52:00,59.0,58.7,29.30,WNW,292,0.0,0.0,99,0.00,,,0.00,58,WeatherCatV1.20B785,2013-08-03 13:52:00,
2013-08-03 09:57:00,59.0,58.7,29.30,WNW,292,0.0,0.0,99,0.00,,,0.00,83,WeatherCatV1.20B785,2013-08-03 13:57:00,
2013-08-03 10:02:00,59.3,59.0,29.30,North,5,0.0,1.0,99,0.00,,,0.00,62,WeatherCatV1.20B785,2013-08-03 14:02:00,
2013-08-03 10:07:00,59.6,59.6,29.30,North,5,0.0,1.0,100,0.00,,,0.00,127,WeatherCatV1.20B785,2013-08-03 14:07:00,
2013-08-03 10:12:00,59.9,59.6,29.30,North,5,0.0,1.0,99,0.00,,,0.00,81,WeatherCatV1.20B785,2013-08-03 14:12:00,
2013-08-03 10:17:00,60.1,60.1,29.30,North,355,0.0,4.0,100,0.00,,,0.00,84,WeatherCatV1.20B785,2013-08-03 14:17:00,
2013-08-03 10:22:00,60.3,60.3,29.30,North,355,0.0,0.0,100,0.00,,,0.00,120,WeatherCatV1.20B785,2013-08-03 14:22:00,
2013-08-03 10:27:00,60.5,60.5,29.30,North,355,0.0,0.0,100,0.00,,,0.00,72,WeatherCatV1.20B785,2013-08-03 14:27:00,
2013-08-03 10:32:00,60.7,60.7,29.30,North,355,1.0,3.0,100,0.00,,,0.00,127,WeatherCatV1.20B785,2013-08-03 14:32:00,
2013-08-03 10:37:00,61.0,61.0,29.29,North,355,0.0,0.0,100,0.00,,,0.00,113,WeatherCatV1.20B785,2013-08-03 14:37:00,
2013-08-03 10:42:00,61.3,61.3,29.29,North,355,0.0,1.0,100,0.00,,,0.00,274,WeatherCatV1.20B785,2013-08-03 14:42:00,
2013-08-03 10:47:00,61.7,61.7,29.29,North,355,0.0,1.0,100,0.00,,,0.00,156,WeatherCatV1.20B785,2013-08-03 14:47:00,
2013-08-03 10:52:00,61.9,61.9,29.29,North,355,0.0,0.0,100,0.00,,,0.00,47,WeatherCatV1.20B785,2013-08-03 14:52:00,
2013-08-03 10:57:00,62.1,62.1,29.29,North,355,0.0,0.0,100,0.00,,,0.00,47,WeatherCatV1.20B785,2013-08-03 14:57:00,
2013-08-03 11:02:00,62.2,61.9,29.28,North,355,0.0,0.0,99,0.00,,,0.00,44,WeatherCatV1.20B785,2013-08-03 15:02:00,
2013-08-03 11:07:00,62.5,62.2,29.28,North,355,0.0,0.0,99,0.00,,,0.00,56,WeatherCatV1.20B785,2013-08-03 15:07:00,
2013-08-03 11:12:00,63.0,62.7,29.28,North,355,0.0,0.0,99,0.00,,,0.00,628,WeatherCatV1.20B785,2013-08-03 15:12:00,
2013-08-03 11:17:00,63.5,63.2,29.28,North,355,0.0,0.0,99,0.00,,,0.00,468,WeatherCatV1.20B785,2013-08-03 15:17:00,
2013-08-03 11:22:00,64.1,63.8,29.28,North,355,0.0,0.0,99,0.00,,,0.00,114,WeatherCatV1.20B785,2013-08-03 15:22:00,
2013-08-03 11:27:00,64.4,63.8,29.28,North,355,0.0,0.0,98,0.00,,,0.00,114,WeatherCatV1.20B785,2013-08-03 15:27:00,
2013-08-03 11:32:00,64.8,63.0,29.28,North,355,0.0,0.0,94,0.00,,,0.00,100,WeatherCatV1.20B785,2013-08-03 15:32:00,
2013-08-03 11:37:00,65.2,61.9,29.27,North,355,0.0,0.0,89,0.00,,,0.00,84,WeatherCatV1.20B785,2013-08-03 15:37:00,
2013-08-03 11:42:00,65.6,61.9,29.27,North,355,0.0,0.0,88,0.00,,,0.00,79,WeatherCatV1.20B785,2013-08-03 15:42:00,
2013-08-03 11:47:00,65.9,62.2,29.27,North,355,0.0,0.0,88,0.00,,,0.00,91,WeatherCatV1.20B785,2013-08-03 15:47:00,
2013-08-03 11:52:00,66.3,62.3,29.27,North,355,0.0,0.0,87,0.00,,,0.00,79,WeatherCatV1.20B785,2013-08-03 15:52:00,
2013-08-03 11:57:00,66.6,62.9,29.27,North,355,0.0,0.0,88,0.00,,,0.00,63,WeatherCatV1.20B785,2013-08-03 15:57:00,
2013-08-03 12:02:00,66.9,62.6,29.27,North,355,0.0,1.0,86,0.00,,,0.00,46,WeatherCatV1.20B785,2013-08-03 16:02:00,
2013-08-03 12:07:00,67.2,61.8,29.27,North,355,0.0,0.0,83,0.00,,,0.00,95,WeatherCatV1.20B785,2013-08-03 16:07:00,
2013-08-03 12:12:00,67.4,62.4,29.26,North,355,0.0,0.0,84,0.00,,,0.00,93,WeatherCatV1.20B785,2013-08-03 16:12:00,
2013-08-03 12:17:00,67.6,62.2,29.26,North,355,0.0,0.0,83,0.00,,,0.00,81,WeatherCatV1.20B785,2013-08-03 16:17:00,
2013-08-03 12:22:00,67.9,62.2,29.26,North,355,0.0,0.0,82,0.00,,,0.00,98,WeatherCatV1.20B785,2013-08-03 16:22:00,
2013-08-03 12:27:00,68.1,62.0,29.26,North,355,0.0,0.0,81,0.00,,,0.00,185,WeatherCatV1.20B785,2013-08-03 16:27:00,
2013-08-03 12:32:00,68.5,63.5,29.25,ENE,69,0.0,2.0,84,0.00,,,0.00,144,WeatherCatV1.20B785,2013-08-03 16:32:00,
2013-08-03 12:37:00,69.1,63.0,29.25,SE,127,0.0,0.0,81,0.00,,,0.00,88,WeatherCatV1.20B785,2013-08-03 16:37:00,
2013-08-03 12:42:00,69.5,62.0,29.25,WNW,289,1.0,5.0,77,0.00,,,0.00,83,WeatherCatV1.20B785,2013-08-03 16:42:00,
2013-08-03 12:47:00,70.0,62.8,29.25,East,87,1.0,2.0,78,0.00,,,0.00,81,WeatherCatV1.20B785,2013-08-03 16:47:00,
2013-08-03 12:52:00,70.4,61.7,29.25,North,5,0.0,2.0,74,0.00,,,0.00,81,WeatherCatV1.20B785,2013-08-03 16:52:00,
2013-08-03 12:57:00,70.6,59.1,29.25,North,355,1.0,7.0,67,0.00,,,0.00,79,WeatherCatV1.20B785,2013-08-03 16:57:00,
2013-08-03 13:02:00,71.0,60.3,29.25,ENE,73,0.0,1.0,69,0.00,,,0.00,90,WeatherCatV1.20B785,2013-08-03 17:02:00,
2013-08-03 13:07:00,71.3,59.8,29.25,NE,39,0.0,4.0,67,0.00,,,0.00,83,WeatherCatV1.20B785,2013-08-03 17:07:00,
2013-08-03 13:12:00,71.6,58.8,29.25,ENE,63,1.0,1.0,64,0.00,,,0.00,88,WeatherCatV1.20B785,2013-08-03 17:12:00,
2013-08-03 13:17:00,71.9,59.0,29.25,NE,48,2.0,3.0,64,0.00,,,0.00,100,WeatherCatV1.20B785,2013-08-03 17:17:00,
2013-08-03 13:22:00,72.3,59.4,29.25,ENE,65,0.0,1.0,64,0.00,,,0.00,88,WeatherCatV1.20B785,2013-08-03 17:22:00,
2013-08-03 13:27:00,72.6,59.3,29.25,WSW,238,0.0,0.0,63,0.00,,,0.00,91,WeatherCatV1.20B785,2013-08-03 17:27:00,
2013-08-03 13:32:00,72.8,59.5,29.24,North,9,0.0,3.0,63,0.00,,,0.00,84,WeatherCatV1.20B785,2013-08-03 17:32:00,
2013-08-03 13:37:00,73.0,58.3,29.25,North,11,0.0,1.0,60,0.00,,,0.00,81,WeatherCatV1.20B785,2013-08-03 17:37:00,
2013-08-03 13:42:00,73.2,58.5,29.24,NNE,14,0.0,0.0,60,0.00,,,0.00,81,WeatherCatV1.20B785,2013-08-03 17:42:00,
2013-08-03 13:47:00,73.4,60.0,29.24,NNE,30,2.0,4.0,63,0.00,,,0.00,84,WeatherCatV1.20B785,2013-08-03 17:47:00,
2013-08-03 13:52:00,73.5,57.8,29.24,NE,49,5.0,5.0,58,0.00,,,0.00,100,WeatherCatV1.20B785,2013-08-03 17:52:00,
2013-08-03 13:57:00,73.7,58.9,29.25,ENE,74,0.0,3.0,60,0.00,,,0.00,93,WeatherCatV1.20B785,2013-08-03 17:57:00,
2013-08-03 14:02:00,73.9,60.0,29.25,ENE,74,1.0,1.0,62,0.00,,,0.00,105,WeatherCatV1.20B785,2013-08-03 18:02:00,
2013-08-03 14:07:00,74.1,59.8,29.25,West,280,0.0,2.0,61,0.00,,,0.00,86,WeatherCatV1.20B785,2013-08-03 18:07:00,
2013-08-03 14:12:00,74.2,58.9,29.25,North,11,0.0,1.0,59,0.00,,,0.00,79,WeatherCatV1.20B785,2013-08-03 18:12:00,
2013-08-03 14:17:00,74.2,59.9,29.25,NNE,19,0.0,3.0,61,0.00,,,0.00,72,WeatherCatV1.20B785,2013-08-03 18:17:00,
2013-08-03 14:22:00,74.2,59.9,29.25,NNE,15,0.0,2.0,61,0.00,,,0.00,88,WeatherCatV1.20B785,2013-08-03 18:22:00,
2013-08-03 14:27:00,74.0,59.7,29.25,NNE,17,0.0,4.0,61,0.00,,,0.00,51,WeatherCatV1.20B785,2013-08-03 18:27:00,
2013-08-03 14:32:00,73.8,59.5,29.26,NNE,26,0.0,1.0,61,0.00,,,0.00,63,WeatherCatV1.20B785,2013-08-03 18:32:00,
2013-08-03 14:37:00,73.6,60.2,29.25,NNE,26,1.0,1.0,63,0.00,,,0.00,81,WeatherCatV1.20B785,2013-08-03 18:37:00,
2013-08-03 14:42:00,73.5,61.4,29.25,NNE,26,0.0,0.0,66,0.00,,,0.00,160,WeatherCatV1.20B785,2013-08-03 18:42:00,
2013-08-03 14:47:00,73.3,59.9,29.25,NNE,26,0.0,2.0,63,0.00,,,0.00,102,WeatherCatV1.20B785,2013-08-03 18:47:00,
2013-08-03 14:52:00,73.2,59.4,29.25,NNE,26,0.0,0.0,62,0.00,,,0.00,130,WeatherCatV1.20B785,2013-08-03 18:52:00,
2013-08-03 14:57:00,73.2,60.7,29.25,NNW,335,0.0,0.0,65,0.00,,,0.00,69,WeatherCatV1.20B785,2013-08-03 18:57:00,
2013-08-03 15:02:00,73.2,61.1,29.25,NNW,335,0.0,1.0,66,0.00,,,0.00,58,WeatherCatV1.20B785,2013-08-03 19:02:00,
2013-08-03 15:07:00,73.3,62.5,29.25,NNW,335,0.0,0.0,69,0.00,,,0.00,42,WeatherCatV1.20B785,2013-08-03 19:07:00,
2013-08-03 15:12:00,73.3,62.9,29.25,NNW,335,0.0,0.0,70,0.00,,,0.00,58,WeatherCatV1.20B785,2013-08-03 19:12:00,
2013-08-03 15:17:00,73.2,62.4,29.25,NNW,335,1.0,1.0,69,0.00,,,0.00,162,WeatherCatV1.20B785,2013-08-03 19:17:00,
2013-08-03 15:22:00,73.1,62.3,29.25,NNW,335,0.0,0.0,69,0.00,,,0.00,49,WeatherCatV1.20B785,2013-08-03 19:22:00,
2013-08-03 15:27:00,72.9,62.5,29.25,NNW,335,0.0,0.0,70,0.00,,,0.00,84,WeatherCatV1.20B785,2013-08-03 19:27:00,
2013-08-03 15:32:00,72.9,64.5,29.25,NNW,335,0.0,0.0,75,0.00,,,0.00,60,WeatherCatV1.20B785,2013-08-03 19:32:00,
2013-08-03 15:37:00,72.6,63.0,29.25,NNW,335,0.0,0.0,72,0.00,,,0.00,37,WeatherCatV1.20B785,2013-08-03 19:37:00,
2013-08-03 15:42:00,72.5,62.5,29.25,NNW,335,0.0,0.0,71,0.00,,,0.00,79,WeatherCatV1.20B785,2013-08-03 19:42:00,
2013-08-03 15:47:00,72.4,63.6,29.26,NNW,335,0.0,0.0,74,0.00,,,0.00,81,WeatherCatV1.20B785,2013-08-03 19:47:00,
2013-08-03 15:52:00,72.4,60.0,29.26,NNE,21,2.0,2.0,65,0.00,,,0.00,91,WeatherCatV1.20B785,2013-08-03 19:52:00,
2013-08-03 15:57:00,72.5,61.7,29.26,NNE,21,0.0,0.0,69,0.00,,,0.00,102,WeatherCatV1.20B785,2013-08-03 19:57:00,
2013-08-03 16:02:00,72.6,61.0,29.26,NE,48,0.0,4.0,67,0.00,,,0.00,83,WeatherCatV1.20B785,2013-08-03 20:02:00,
2013-08-03 16:07:00,72.8,64.0,29.26,NE,48,0.0,1.0,74,0.00,,,0.00,67,WeatherCatV1.20B785,2013-08-03 20:07:00,
2013-08-03 16:12:00,72.8,61.6,29.26,NNE,22,2.0,3.0,68,0.00,,,0.00,70,WeatherCatV1.20B785,2013-08-03 20:12:00,
2013-08-03 16:17:00,72.7,59.8,29.26,NE,43,0.0,1.0,64,0.00,,,0.00,53,WeatherCatV1.20B785,2013-08-03 20:17:00,
2013-08-03 16:22:00,72.6,59.3,29.27,NNW,346,0.0,0.0,63,0.00,,,0.00,44,WeatherCatV1.20B785,2013-08-03 20:22:00,
2013-08-03 16:27:00,72.4,60.8,29.27,NNW,346,0.0,1.0,67,0.00,,,0.00,28,WeatherCatV1.20B785,2013-08-03 20:27:00,
2013-08-03 16:32:00,72.3,62.0,29.27,NNW,346,0.0,0.0,70,0.00,,,0.00,33,WeatherCatV1.20B785,2013-08-03 20:32:00,
2013-08-03 16:37:00,72.1,61.8,29.27,NNW,341,0.0,0.0,70,0.00,,,0.00,47,WeatherCatV1.20B785,2013-08-03 20:37:00,
2013-08-03 16:42:00,71.8,61.1,29.27,NNW,341,0.0,0.0,69,0.00,,,0.00,62,WeatherCatV1.20B785,2013-08-03 20:42:00,
2013-08-03 16:47:00,71.6,60.9,29.27,NNW,348,0.0,1.0,69,0.00,,,0.00,102,WeatherCatV1.20B785,2013-08-03 20:47:00,
2013-08-03 16:52:00,71.4,60.3,29.27,NNE,22,0.0,0.0,68,0.00,,,0.00,90,WeatherCatV1.20B785,2013-08-03 20:52:00,
2013-08-03 16:57:00,71.3,58.9,29.27,North,5,2.0,2.0,65,0.00,,,0.00,98,WeatherCatV1.20B785,2013-08-03 20:57:00,
2013-08-03 17:02:00,71.4,59.0,29.27,NNE,22,0.0,2.0,65,0.00,,,0.00,111,WeatherCatV1.20B785,2013-08-03 21:02:00,
2013-08-03 17:07:00,71.6,58.8,29.27,NE,43,0.0,3.0,64,0.00,,,0.00,91,WeatherCatV1.20B785,2013-08-03 21:07:00,
2013-08-03 17:12:00,71.8,59.4,29.27,West,269,1.0,1.0,65,0.00,,,0.00,84,WeatherCatV1.20B785,2013-08-03 21:12:00,
2013-08-03 17:17:00,71.9,62.4,29.27,West,269,0.0,0.0,72,0.00,,,0.00,54,WeatherCatV1.20B785,2013-08-03 21:17:00,
2013-08-03 17:22:00,72.1,63.7,29.26,West,269,0.0,0.0,75,0.00,,,0.00,39,WeatherCatV1.20B785,2013-08-03 21:22:00,
2013-08-03 17:27:00,72.1,63.0,29.26,West,269,0.0,0.0,73,0.00,,,0.00,54,WeatherCatV1.20B785,2013-08-03 21:27:00,
2013-08-03 17:32:00,72.0,62.9,29.26,West,269,0.0,1.0,73,0.00,,,0.00,40,WeatherCatV1.20B785,2013-08-03 21:32:00,
2013-08-03 17:37:00,71.9,62.4,29.26,West,269,0.0,0.0,72,0.00,,,0.00,26,WeatherCatV1.20B785,2013-08-03 21:37:00,
2013-08-03 17:42:00,71.7,61.4,29.26,West,269,0.0,0.0,70,0.00,,,0.00,32,WeatherCatV1.20B785,2013-08-03 21:42:00,
2013-08-03 17:47:00,71.5,62.0,29.27,West,269,0.0,0.0,72,0.00,,,0.00,56,WeatherCatV1.20B785,2013-08-03 21:47:00,
2013-08-03 17:52:00,71.3,62.2,29.27,West,269,0.0,0.0,73,0.00,,,0.00,35,WeatherCatV1.20B785,2013-08-03 21:52:00,
2013-08-03 17:57:00,71.1,62.8,29.27,West,269,0.0,0.0,75,0.00,,,0.00,14,WeatherCatV1.20B785,2013-08-03 21:57:00,
2013-08-03 18:02:00,70.9,62.9,29.27,West,269,0.0,0.0,76,0.00,,,0.00,30,WeatherCatV1.20B785,2013-08-03 22:02:00,
2013-08-03 18:07:00,70.6,62.3,29.27,West,269,0.0,1.0,75,0.00,,,0.00,39,WeatherCatV1.20B785,2013-08-03 22:07:00,
2013-08-03 18:12:00,70.3,62.4,29.27,West,269,0.0,0.0,76,0.00,,,0.00,39,WeatherCatV1.20B785,2013-08-03 22:12:00,
2013-08-03 18:17:00,70.1,63.3,29.27,West,269,0.0,0.0,79,0.00,,,0.00,19,WeatherCatV1.20B785,2013-08-03 22:17:00,
2013-08-03 18:22:00,69.9,62.7,29.27,West,269,0.0,0.0,78,0.00,,,0.00,18,WeatherCatV1.20B785,2013-08-03 22:22:00,
2013-08-03 18:27:00,69.6,62.1,29.27,West,269,1.0,1.0,77,0.00,,,0.00,16,WeatherCatV1.20B785,2013-08-03 22:27:00,
2013-08-03 18:32:00,69.4,62.2,29.27,West,269,0.0,0.0,78,0.00,,,0.00,11,WeatherCatV1.20B785,2013-08-03 22:32:00,
2013-08-03 18:37:00,69.1,61.6,29.27,West,269,0.0,0.0,77,0.00,,,0.00,14,WeatherCatV1.20B785,2013-08-03 22:37:00,
2013-08-03 18:42:00,68.9,62.1,29.27,West,269,0.0,0.0,79,0.00,,,0.00,18,WeatherCatV1.20B785,2013-08-03 22:42:00,
2013-08-03 18:47:00,68.6,61.5,29.27,West,269,0.0,1.0,78,0.00,,,0.00,11,WeatherCatV1.20B785,2013-08-03 22:47:00,
2013-08-03 18:52:00,68.4,61.3,29.27,West,269,0.0,0.0,78,0.00,,,0.00,9,WeatherCatV1.20B785,2013-08-03 22:52:00,
2013-08-03 18:57:00,68.1,61.7,29.27,West,269,0.0,0.0,80,0.00,,,0.00,11,WeatherCatV1.20B785,2013-08-03 22:57:00,
2013-08-03 19:02:00,68.0,61.6,29.27,West,269,0.0,0.0,80,0.00,,,0.00,18,WeatherCatV1.20B785,2013-08-03 23:02:00,
2013-08-03 19:07:00,67.7,61.3,29.27,West,269,0.0,0.0,80,0.00,,,0.00,12,WeatherCatV1.20B785,2013-08-03 23:07:00,
2013-08-03 19:12:00,67.6,61.9,29.27,West,269,0.0,0.0,82,0.00,,,0.00,12,WeatherCatV1.20B785,2013-08-03 23:12:00,
2013-08-03 19:17:00,67.4,62.0,29.27,West,269,0.0,0.0,83,0.00,,,0.00,11,WeatherCatV1.20B785,2013-08-03 23:17:00,
2013-08-03 19:22:00,67.1,61.4,29.27,West,269,0.0,2.0,82,0.00,,,0.00,7,WeatherCatV1.20B785,2013-08-03 23:22:00,
2013-08-03 19:27:00,66.9,61.9,29.28,West,269,0.0,0.0,84,0.00,,,0.00,7,WeatherCatV1.20B785,2013-08-03 23:27:00,
2013-08-03 19:32:00,66.6,61.9,29.28,West,269,0.0,0.0,85,0.00,,,0.00,5,WeatherCatV1.20B785,2013-08-03 23:32:00,
2013-08-03 19:37:00,66.4,61.8,29.28,West,269,0.0,0.0,85,0.00,,,0.00,0,WeatherCatV1.20B785,2013-08-03 23:37:00,
2013-08-03 19:42:00,66.1,61.5,29.28,West,269,0.0,0.0,85,0.00,,,0.00,5,WeatherCatV1.20B785,2013-08-03 23:42:00,
2013-08-03 19:47:00,65.9,61.6,29.28,West,269,0.0,0.0,86,0.00,,,0.00,0,WeatherCatV1.20B785,2013-08-03 23:47:00,
2013-08-03 19:52:00,65.7,61.7,29.29,West,269,0.0,0.0,87,0.00,,,0.00,0,WeatherCatV1.20B785,2013-08-03 23:52:00,
2013-08-03 19:57:00,65.4,61.1,29.29,West,269,0.0,0.0,86,0.00,,,0.00,0,WeatherCatV1.20B785,2013-08-03 23:57:00,
2013-08-03 20:02:00,65.2,60.9,29.29,West,269,1.0,1.0,86,0.00,,,0.00,0,WeatherCatV1.20B785,2013-08-04 00:02:00,
2013-08-03 20:07:00,64.8,59.8,29.29,West,269,0.0,0.0,84,0.00,,,0.00,0,WeatherCatV1.20B785,2013-08-04 00:07:00,
2013-08-03 20:12:00,64.5,59.9,29.29,West,269,0.0,0.0,85,0.00,,,0.00,0,WeatherCatV1.20B785,2013-08-04 00:12:00,
2013-08-03 20:17:00,64.3,60.0,29.29,West,269,0.0,1.0,86,0.00,,,0.00,0,WeatherCatV1.20B785,2013-08-04 00:17:00,
2013-08-03 20:22:00,63.9,60.0,29.30,West,269,0.0,0.0,87,0.00,,,0.00,0,WeatherCatV1.20B785,2013-08-04 00:22:00,
2013-08-03 20:32:00,63.4,59.5,29.30,West,269,0.0,1.0,87,0.00,,,0.00,0,WeatherCatV1.20B785,2013-08-04 00:32:00,
2013-08-03 20:36:00,63.2,59.3,29.30,West,269,0.0,1.0,87,0.00,,,0.00,0,WeatherCatV1.20B785,2013-08-04 00:36:00,
2013-08-03 20:41:00,63.0,59.1,29.30,West,269,0.0,1.0,87,0.00,,,0.00,0,WeatherCatV1.20B785,2013-08-04 00:41:00,
2013-08-03 20:46:00,62.8,59.2,29.30,West,269,0.0,0.0,88,0.00,,,0.00,0,WeatherCatV1.20B785,2013-08-04 00:46:00,
2013-08-03 20:51:00,62.6,59.0,29.30,West,269,0.0,0.0,88,0.00,,,0.00,0,WeatherCatV1.20B785,2013-08-04 00:51:00,
2013-08-03 20:56:00,62.4,58.8,29.31,West,269,0.0,0.0,88,0.00,,,0.00,0,WeatherCatV1.20B785,2013-08-04 00:56:00,
2013-08-03 21:01:00,62.2,58.9,29.31,West,269,0.0,2.0,89,0.00,,,0.00,0,WeatherCatV1.20B785,2013-08-04 01:01:00,
2013-08-03 21:06:00,62.0,58.7,29.31,West,269,0.0,1.0,89,0.00,,,0.00,0,WeatherCatV1.20B785,2013-08-04 01:06:00,
2013-08-03 21:11:00,61.9,58.6,29.31,West,269,0.0,1.0,89,0.00,,,0.00,0,WeatherCatV1.20B785,2013-08-04 01:11:00,
2013-08-03 21:16:00,61.7,58.4,29.31,West,269,0.0,0.0,89,0.00,,,0.00,0,WeatherCatV1.20B785,2013-08-04 01:16:00,
2013-08-03 21:21:00,61.6,58.6,29.32,West,269,0.0,0.0,90,0.00,,,0.00,0,WeatherCatV1.20B785,2013-08-04 01:21:00,
2013-08-03 21:26:00,61.5,58.5,29.32,West,269,0.0,0.0,90,0.00,,,0.00,0,WeatherCatV1.20B785,2013-08-04 01:26:00,
2013-08-03 21:31:00,61.4,58.8,29.32,West,269,0.0,0.0,91,0.00,,,0.00,0,WeatherCatV1.20B785,2013-08-04 01:31:00,
2013-08-03 21:36:00,61.3,58.7,29.32,West,269,0.0,0.0,91,0.00,,,0.00,0,WeatherCatV1.20B785,2013-08-04 01:36:00,
2013-08-03 21:41:00,61.2,58.5,29.32,West,269,0.0,0.0,91,0.00,,,0.00,0,WeatherCatV1.20B785,2013-08-04 01:41:00,
2013-08-03 21:46:00,61.1,58.5,29.32,West,269,0.0,0.0,91,0.00,,,0.00,0,WeatherCatV1.20B785,2013-08-04 01:46:00,
2013-08-03 21:51:00,61.0,58.7,29.32,West,269,0.0,0.0,92,0.00,,,0.00,0,WeatherCatV1.20B785,2013-08-04 01:51:00,
2013-08-03 21:56:00,61.0,58.7,29.32,West,269,0.0,0.0,92,0.00,,,0.00,0,WeatherCatV1.20B785,2013-08-04 01:56:00,
2013-08-03 22:01:00,60.9,58.6,29.32,West,269,0.0,0.0,92,0.00,,,0.00,0,WeatherCatV1.20B785,2013-08-04 02:01:00,
2013-08-03 22:06:00,60.9,58.9,29.32,West,269,0.0,0.0,93,0.00,,,0.00,0,WeatherCatV1.20B785,2013-08-04 02:06:00,
2013-08-03 22:11:00,60.8,58.5,29.32,West,269,0.0,0.0,92,0.00,,,0.00,0,WeatherCatV1.20B785,2013-08-04 02:11:00,
2013-08-03 22:16:00,60.7,58.4,29.32,West,269,0.0,0.0,92,0.00,,,0.00,0,WeatherCatV1.20B785,2013-08-04 02:16:00,
2013-08-03 22:21:00,60.6,58.3,29.32,West,269,0.0,0.0,92,0.00,,,0.00,0,WeatherCatV1.20B785,2013-08-04 02:21:00,
2013-08-03 22:26:00,60.6,58.3,29.32,West,269,0.0,0.0,92,0.00,,,0.00,0,WeatherCatV1.20B785,2013-08-04 02:26:00,
2013-08-03 22:31:00,60.5,58.2,29.32,West,269,0.0,0.0,92,0.00,,,0.00,0,WeatherCatV1.20B785,2013-08-04 02:31:00,
2013-08-03 22:36:00,60.4,58.1,29.32,West,269,0.0,2.0,92,0.00,,,0.00,0,WeatherCatV1.20B785,2013-08-04 02:36:00,
2013-08-03 22:41:00,60.2,57.9,29.32,West,269,0.0,0.0,92,0.00,,,0.00,0,WeatherCatV1.20B785,2013-08-04 02:41:00,
2013-08-03 22:46:00,60.1,57.8,29.32,West,269,0.0,0.0,92,0.00,,,0.00,0,WeatherCatV1.20B785,2013-08-04 02:46:00,
2013-08-03 22:51:00,59.9,57.6,29.32,West,269,0.0,0.0,92,0.00,,,0.00,0,WeatherCatV1.20B785,2013-08-04 02:51:00,
2013-08-03 22:56:00,59.7,57.4,29.31,West,269,0.0,0.0,92,0.00,,,0.00,0,WeatherCatV1.20B785,2013-08-04 02:56:00,
2013-08-03 23:01:00,59.5,57.2,29.31,West,269,0.0,0.0,92,0.00,,,0.00,0,WeatherCatV1.20B785,2013-08-04 03:01:00,
2013-08-03 23:06:00,59.4,57.1,29.31,West,269,0.0,0.0,92,0.00,,,0.00,0,WeatherCatV1.20B785,2013-08-04 03:06:00,
2013-08-03 23:11:00,59.2,56.9,29.31,West,269,0.0,1.0,92,0.00,,,0.00,0,WeatherCatV1.20B785,2013-08-04 03:11:00,
2013-08-03 23:16:00,59.0,57.0,29.32,West,269,0.0,0.0,93,0.00,,,0.00,0,WeatherCatV1.20B785,2013-08-04 03:16:00,
2013-08-03 23:21:00,59.0,57.0,29.31,West,269,0.0,1.0,93,0.00,,,0.00,0,WeatherCatV1.20B785,2013-08-04 03:21:00,
2013-08-03 23:26:00,59.0,57.0,29.31,West,269,0.0,0.0,93,0.00,,,0.00,0,WeatherCatV1.20B785,2013-08-04 03:26:00,
2013-08-03 23:31:00,58.9,56.9,29.31,West,269,0.0,0.0,93,0.00,,,0.00,0,WeatherCatV1.20B785,2013-08-04 03:31:00,
2013-08-03 23:36:00,58.8,56.8,29.32,West,269,0.0,0.0,93,0.00,,,0.00,0,WeatherCatV1.20B785,2013-08-04 03:36:00,
2013-08-03 23:41:00,58.6,56.6,29.32,West,269,0.0,0.0,93,0.00,,,0.00,0,WeatherCatV1.20B785,2013-08-04 03:41:00,
2013-08-03 23:46:00,58.5,56.5,29.32,West,269,0.0,1.0,93,0.00,,,0.00,0,WeatherCatV1.20B785,2013-08-04 03:46:00,
2013-08-03 23:51:00,58.3,56.3,29.32,West,269,0.0,0.0,93,0.00,,,0.00,0,WeatherCatV1.20B785,2013-08-04 03:51:00,
2013-08-03 23:56:00,58.2,56.2,29.31,West,269,0.0,0.0,93,0.00,,,0.00,0,WeatherCatV1.20B785,2013-08-04 03:56:00,